TimeEST,TemperatureF,Dew PointF,Humidity,Sea Level PressureIn,VisibilityMPH,Wind Direction,Wind SpeedMPH,Gust SpeedMPH,PrecipitationIn,Events,Conditions,WindDirDegrees,DateUTC
12:55 AM,26.6,23.0,86,29.90,10.0,Calm,Calm,-,N/A,,Overcast,0,2013-01-07 05:55:00
1:15 AM,26.6,23.0,86,29.91,10.0,West,4.6,-,N/A,,Overcast,260,2013-01-07 06:15:00
1:55 AM,28.4,24.8,86,29.93,10.0,Calm,Calm,-,N/A,,Overcast,0,2013-01-07 06:55:00
2:35 AM,26.6,24.8,93,29.94,10.0,WSW,4.6,-,N/A,,Mostly Cloudy,250,2013-01-07 07:35:00
2:55 AM,28.4,24.8,86,29.94,10.0,WSW,4.6,-,N/A,,Overcast,250,2013-01-07 07:55:00
3:15 AM,30.2,24.8,80,29.94,10.0,West,3.5,-,N/A,,Overcast,260,2013-01-07 08:15:00
3:35 AM,28.4,24.8,86,29.95,9.0,Calm,Calm,-,N/A,,Overcast,0,2013-01-07 08:35:00
4:15 AM,28.4,24.8,86,29.97,10.0,Calm,Calm,-,N/A,,Overcast,0,2013-01-07 09:15:00
5:15 AM,30.2,26.6,86,30.00,10.0,WSW,5.8,-,N/A,,Overcast,250,2013-01-07 10:15:00
5:35 AM,33.8,26.6,75,30.02,10.0,West,4.6,-,N/A,,Overcast,270,2013-01-07 10:35:00
6:15 AM,32.0,24.8,75,30.05,10.0,West,4.6,-,N/A,,Overcast,260,2013-01-07 11:15:00
6:35 AM,30.2,23.0,75,30.07,10.0,West,5.8,-,N/A,,Overcast,260,2013-01-07 11:35:00
6:55 AM,30.2,21.2,69,30.08,10.0,WNW,4.6,-,N/A,,Mostly Cloudy,300,2013-01-07 11:55:00
7:55 AM,28.4,19.4,69,30.13,10.0,WNW,8.1,-,N/A,,Partly Cloudy,300,2013-01-07 12:55:00
8:15 AM,28.4,17.6,64,30.15,10.0,West,4.6,-,N/A,,Partly Cloudy,260,2013-01-07 13:15:00
8:35 AM,28.4,17.6,64,30.17,10.0,West,6.9,-,N/A,,Partly Cloudy,270,2013-01-07 13:35:00
8:55 AM,28.4,17.6,64,30.19,10.0,West,9.2,-,N/A,,Clear,260,2013-01-07 13:55:00
9:15 AM,28.4,15.8,59,30.21,10.0,WNW,11.5,19.6,N/A,,Clear,300,2013-01-07 14:15:00
9:35 AM,26.6,15.8,64,30.22,10.0,WNW,13.8,21.9,N/A,,Clear,300,2013-01-07 14:35:00
9:55 AM,28.4,14.0,55,30.23,10.0,WNW,6.9,-,N/A,,Clear,300,2013-01-07 14:55:00
10:15 AM,28.4,14.0,55,30.24,10.0,NW,11.5,-,N/A,,Clear,310,2013-01-07 15:15:00
10:35 AM,26.6,14.0,59,30.24,10.0,West,12.7,18.4,N/A,,Clear,280,2013-01-07 15:35:00
10:55 AM,26.6,12.2,55,30.24,10.0,WNW,9.2,21.9,N/A,,Clear,300,2013-01-07 15:55:00
11:15 AM,28.4,12.2,51,30.24,10.0,WNW,8.1,19.6,N/A,,Clear,290,2013-01-07 16:15:00
11:35 AM,28.4,12.2,51,30.25,10.0,West,8.1,-,N/A,,Clear,260,2013-01-07 16:35:00
11:55 AM,28.4,12.2,51,30.25,10.0,West,9.2,-,N/A,,Clear,260,2013-01-07 16:55:00
12:35 PM,26.6,12.2,55,30.26,10.0,WSW,11.5,17.3,N/A,,Clear,240,2013-01-07 17:35:00
12:55 PM,28.4,10.4,47,30.27,10.0,West,6.9,-,N/A,,Clear,270,2013-01-07 17:55:00
1:15 PM,28.4,10.4,47,30.26,10.0,West,4.6,-,N/A,,Clear,260,2013-01-07 18:15:00
1:35 PM,28.4,10.4,47,30.27,10.0,West,10.4,16.1,N/A,,Clear,260,2013-01-07 18:35:00
2:55 PM,28.4,6.8,40,30.29,10.0,West,6.9,-,N/A,,Clear,270,2013-01-07 19:55:00
3:35 PM,28.4,6.8,40,30.30,10.0,West,6.9,-,N/A,,Clear,260,2013-01-07 20:35:00
3:55 PM,28.4,6.8,40,30.31,10.0,Calm,Calm,-,N/A,,Clear,0,2013-01-07 20:55:00
4:15 PM,28.4,8.6,43,30.32,10.0,West,4.6,-,N/A,,Clear,270,2013-01-07 21:15:00
4:35 PM,26.6,8.6,47,30.32,10.0,WSW,3.5,-,N/A,,Clear,250,2013-01-07 21:35:00
4:55 PM,24.8,8.6,50,30.32,10.0,Calm,Calm,-,N/A,,Clear,0,2013-01-07 21:55:00
5:15 PM,23.0,8.6,54,30.32,10.0,Calm,Calm,-,N/A,,Clear,0,2013-01-07 22:15:00
5:35 PM,21.2,8.6,58,30.33,10.0,Calm,Calm,-,N/A,,Clear,0,2013-01-07 22:35:00
6:15 PM,19.4,8.6,63,30.33,10.0,Calm,Calm,-,N/A,,Clear,0,2013-01-07 23:15:00
6:35 PM,19.4,8.6,63,30.33,10.0,Calm,Calm,-,N/A,,Clear,0,2013-01-07 23:35:00
6:55 PM,17.6,8.6,68,30.33,10.0,Calm,Calm,-,N/A,,Clear,0,2013-01-07 23:55:00
7:15 PM,17.6,8.6,68,30.31,10.0,Calm,Calm,-,N/A,,Clear,0,2013-01-08 00:15:00
7:35 PM,15.8,8.6,73,30.31,10.0,Calm,Calm,-,N/A,,Clear,0,2013-01-08 00:35:00
7:55 PM,15.8,8.6,73,30.31,10.0,Calm,Calm,-,N/A,,Clear,0,2013-01-08 00:55:00
8:15 PM,15.8,8.6,73,30.31,10.0,Calm,Calm,-,N/A,,Clear,0,2013-01-08 01:15:00
8:35 PM,14.0,6.8,73,30.31,10.0,Calm,Calm,-,N/A,,Clear,0,2013-01-08 01:35:00
8:55 PM,12.2,6.8,79,30.31,10.0,Calm,Calm,-,N/A,,Clear,0,2013-01-08 01:55:00
9:15 PM,12.2,6.8,79,30.31,10.0,Calm,Calm,-,N/A,,Clear,0,2013-01-08 02:15:00
9:35 PM,12.2,6.8,79,30.30,10.0,Calm,Calm,-,N/A,,Clear,0,2013-01-08 02:35:00
9:55 PM,12.2,6.8,79,30.30,10.0,Calm,Calm,-,N/A,,Clear,0,2013-01-08 02:55:00
10:15 PM,10.4,6.8,85,30.31,10.0,Calm,Calm,-,N/A,,Clear,0,2013-01-08 03:15:00
10:35 PM,10.4,5.0,79,30.30,10.0,Calm,Calm,-,N/A,,Clear,0,2013-01-08 03:35:00
10:55 PM,10.4,6.8,85,30.30,10.0,Calm,Calm,-,N/A,,Clear,0,2013-01-08 03:55:00
11:15 PM,10.4,3.2,73,30.29,10.0,Calm,Calm,-,N/A,,Clear,0,2013-01-08 04:15:00
11:35 PM,10.4,5.0,79,30.29,10.0,Calm,Calm,-,N/A,,Clear,0,2013-01-08 04:35:00
11:55 PM,8.6,3.2,79,30.28,10.0,Calm,Calm,-,N/A,,Clear,0,2013-01-08 04:55:00